Time;durP1;ratioP1;P1;durP2;ratioP2;P2;SDS_P1;SDS_P2;PMS_P1;PMS_P2;Temp;Humidity;BMP_temperature;BMP_pressure;BME280_temperature;BME280_humidity;BME280_pressure;Samples;Min_cycle;Max_cycle;Signal;HPM_P1;HPM_P2
2021/12/01 00:00:52;;;;;;;4.65;4.25;;;;;;;10.74;85.19;99951.38;3580216;40;20049;-66
2021/12/01 00:03:18;;;;;;;4.00;3.70;;;;;;;10.82;85.39;99954.38;3579659;40;20076;-66
2021/12/01 00:05:43;;;;;;;4.40;4.10;;;;;;;10.80;85.41;99942.84;3581641;40;20060;-66
2021/12/01 00:08:10;;;;;;;4.10;3.80;;;;;;;10.78;85.00;99942.97;3581921;40;20067;-66
2021/12/01 00:10:38;;;;;;;3.90;3.60;;;;;;;10.80;84.50;99934.78;3581683;40;20112;-66
2021/12/01 00:13:09;;;;;;;3.85;3.55;;;;;;;10.80;85.11;99919.50;3583053;40;20110;-66
2021/12/01 00:15:37;;;;;;;3.75;3.53;;;;;;;10.79;84.39;99917.81;3583260;40;20055;-66
2021/12/01 00:18:03;;;;;;;3.83;3.53;;;;;;;10.81;84.83;99923.91;3581080;40;20733;-66
2021/12/01 00:20:29;;;;;;;3.30;3.10;;;;;;;10.65;84.60;99869.63;3583052;40;20057;-66
2021/12/01 00:22:55;;;;;;;3.60;3.30;;;;;;;10.68;84.24;99875.63;3581819;40;20048;-67
2021/12/01 00:25:23;;;;;;;2.90;2.63;;;;;;;10.85;84.01;99894.97;3581378;40;20371;-66
2021/12/01 00:27:54;;;;;;;3.40;3.20;;;;;;;10.69;84.50;99855.00;3582530;40;20129;-66
2021/12/01 00:30:22;;;;;;;3.63;2.47;;;;;;;10.83;83.78;99870.88;3581196;40;20411;-65
2021/12/01 00:32:51;;;;;;;3.17;2.97;;;;;;;10.59;84.00;99819.91;3580321;40;20052;-66
2021/12/01 00:35:17;;;;;;;2.92;2.72;;;;;;;10.83;83.97;99849.38;3568627;40;20487;-66
2021/12/01 00:37:43;;;;;;;3.15;2.90;;;;;;;10.89;84.41;99848.91;3582656;40;20048;-65
2021/12/01 00:40:12;;;;;;;3.00;2.80;;;;;;;10.90;83.31;99834.47;3581649;40;20387;-66
2021/12/01 00:42:38;;;;;;;3.60;3.30;;;;;;;10.51;84.18;99791.94;3583296;40;20071;-66
2021/12/01 00:45:16;;;;;;;4.00;3.47;;;;;;;10.76;84.17;99815.06;3582260;40;20040;-65
2021/12/01 00:47:47;;;;;;;3.38;3.17;;;;;;;10.80;83.91;99827.25;3583034;40;20052;-66
2021/12/01 00:50:27;;;;;;;2.60;2.38;;;;;;;10.80;84.41;99828.13;3582264;40;20056;-65
2021/12/01 00:52:57;;;;;;;3.78;3.40;;;;;;;10.74;84.06;99823.22;3582947;40;20141;-66
2021/12/01 00:55:23;;;;;;;5.20;3.67;;;;;;;10.71;83.89;99811.84;3582207;40;20113;-66
2021/12/01 00:57:50;;;;;;;3.45;3.20;;;;;;;10.72;83.67;99809.06;3582781;40;20145;-66
2021/12/01 01:00:18;;;;;;;4.05;3.65;;;;;;;10.71;83.72;99818.09;3579629;40;20127;-66
2021/12/01 01:02:44;;;;;;;3.72;3.42;;;;;;;10.73;83.64;99805.38;3581038;40;20044;-66
2021/12/01 01:05:10;;;;;;;4.82;4.07;;;;;;;10.69;84.14;99787.81;3581880;40;20059;-66
2021/12/01 01:07:36;;;;;;;7.63;4.05;;;;;;;10.67;84.17;99790.59;3581113;40;20048;-66
2021/12/01 01:18:34;;;;;;;3.97;3.67;;;;;;;10.66;83.25;99771.91;3579007;40;20409;-66
2021/12/01 01:21:01;;;;;;;5.53;5.03;;;;;;;10.63;83.26;99775.69;3581144;40;20052;-66
2021/12/01 01:23:29;;;;;;;6.00;5.60;;;;;;;10.62;82.94;99754.31;3582135;40;20060;-66
2021/12/01 01:25:57;;;;;;;6.43;5.32;;;;;;;10.61;82.80;99747.22;3582117;40;20101;-66
2021/12/01 01:28:22;;;;;;;6.20;5.60;;;;;;;10.61;82.46;99752.59;3579928;40;20476;-67
2021/12/01 01:30:48;;;;;;;5.60;5.10;;;;;;;10.59;82.31;99746.47;3580927;40;20088;-66
2021/12/01 01:33:14;;;;;;;5.43;5.03;;;;;;;10.62;82.32;99738.19;3581905;40;20056;-66
2021/12/01 01:35:40;;;;;;;5.90;5.07;;;;;;;10.58;82.38;99736.72;3583619;40;20056;-66
2021/12/01 01:38:05;;;;;;;5.32;4.82;;;;;;;10.53;82.62;99734.41;3580942;40;20060;-66
2021/12/01 01:40:31;;;;;;;5.70;5.20;;;;;;;10.53;82.57;99734.41;3582042;40;20049;-67
2021/12/01 01:42:56;;;;;;;5.40;5.00;;;;;;;10.43;82.27;99696.66;3583273;40;20048;-66
2021/12/01 01:45:22;;;;;;;4.45;4.07;;;;;;;10.59;82.16;99730.34;3580636;40;20098;-66
2021/12/01 01:48:03;;;;;;;4.43;4.13;;;;;;;10.56;81.60;99728.78;3577099;40;20053;-66
2021/12/01 01:50:36;;;;;;;4.85;4.50;;;;;;;10.37;82.09;99696.28;3579029;40;20127;-66
2021/12/01 01:53:10;;;;;;;5.33;4.77;;;;;;;10.51;81.73;99719.38;3582515;40;20044;-67
2021/12/01 01:55:40;;;;;;;4.85;4.45;;;;;;;10.50;81.79;99710.47;3576274;40;20324;-66
2021/12/01 01:58:07;;;;;;;4.82;4.50;;;;;;;10.45;81.62;99701.91;3578402;40;20071;-67
2021/12/01 02:00:40;;;;;;;4.70;4.30;;;;;;;10.41;81.73;99685.19;3582335;40;20113;-67
2021/12/01 02:03:06;;;;;;;4.60;4.28;;;;;;;10.41;82.40;99697.75;3580686;40;20053;-66
2021/12/01 02:05:37;;;;;;;4.05;3.78;;;;;;;10.43;81.51;99702.03;3581580;40;20300;-66
2021/12/01 02:08:03;;;;;;;4.03;3.70;;;;;;;10.42;81.39;99683.34;3582234;40;20122;-66
2021/12/01 02:10:28;;;;;;;5.00;4.50;;;;;;;10.36;81.92;99679.31;3583885;40;20052;-66
2021/12/01 02:12:54;;;;;;;5.53;3.92;;;;;;;10.39;81.38;99662.94;3581840;40;20055;-66
2021/12/01 02:15:19;;;;;;;3.78;3.47;;;;;;;10.34;81.12;99662.47;3580914;40;20164;-66
2021/12/01 02:17:45;;;;;;;3.72;3.42;;;;;;;10.34;81.04;99662.47;3582276;40;20103;-67
2021/12/01 02:20:20;;;;;;;3.97;3.08;;;;;;;10.33;81.38;99655.38;3581572;40;20048;-66
2021/12/01 02:22:46;;;;;;;3.35;3.15;;;;;;;10.34;81.48;99641.00;3581557;40;20048;-67
2021/12/01 02:25:12;;;;;;;4.15;2.97;;;;;;;10.29;81.24;99655.75;3581087;40;20044;-67
2021/12/01 02:27:38;;;;;;;3.17;2.30;;;;;;;10.27;80.12;99615.56;3582727;40;20079;-66
2021/12/01 02:30:04;;;;;;;2.60;2.40;;;;;;;9.97;80.78;99566.00;3578767;40;20052;-67
2021/12/01 02:32:30;;;;;;;2.40;2.20;;;;;;;10.27;80.74;99618.25;3580053;40;20279;-68
2021/12/01 02:34:55;;;;;;;2.15;2.05;;;;;;;10.33;80.20;99611.53;3581823;40;20056;-67
2021/12/01 02:37:22;;;;;;;2.45;2.28;;;;;;;10.29;80.25;99616.31;3577687;40;20074;-67
2021/12/01 02:39:52;;;;;;;2.47;2.28;;;;;;;10.34;79.77;99592.63;3582442;40;20060;-67
2021/12/01 02:42:20;;;;;;;2.60;2.40;;;;;;;10.21;80.43;99576.63;3578030;40;20067;-67
2021/12/01 02:44:47;;;;;;;2.40;2.20;;;;;;;10.26;80.26;99581.66;3581425;40;20048;-67
2021/12/01 02:47:14;;;;;;;2.30;2.17;;;;;;;10.30;79.76;99585.78;3580712;40;20118;-66
2021/12/01 02:49:39;;;;;;;2.40;2.20;;;;;;;10.21;79.27;99565.00;3577592;40;20052;-66
2021/12/01 02:52:06;;;;;;;2.80;2.60;;;;;;;10.29;79.49;99562.59;3578272;40;20137;-66
2021/12/01 02:54:32;;;;;;;2.75;2.55;;;;;;;10.22;79.30;99564.03;3580282;40;20084;-66
2021/12/01 02:57:00;;;;;;;3.33;2.78;;;;;;;10.05;79.67;99535.00;3577485;40;20059;-67
2021/12/01 02:59:26;;;;;;;4.25;3.00;;;;;;;10.13;79.31;99543.31;3619545;23;20079;-61
2021/12/01 03:01:55;;;;;;;4.63;3.22;;;;;;;10.17;79.37;99555.50;3590646;40;20302;-61
2021/12/01 03:04:23;;;;;;;3.17;2.88;;;;;;;10.16;79.91;99543.06;3591177;40;20052;-61
2021/12/01 03:06:50;;;;;;;4.50;2.92;;;;;;;10.05;79.39;99518.88;3593001;40;20313;-61
2021/12/01 03:09:16;;;;;;;2.88;2.60;;;;;;;10.15;78.97;99530.63;3589915;40;20063;-61
2021/12/01 03:11:44;;;;;;;3.80;3.50;;;;;;;10.10;79.51;99524.75;3588020;40;20048;-61
2021/12/01 03:14:15;;;;;;;3.40;3.10;;;;;;;10.13;78.71;99527.19;3588066;40;20055;-61
2021/12/01 03:16:41;;;;;;;3.50;3.20;;;;;;;10.12;79.64;99514.75;3591899;40;20145;-61
2021/12/01 03:19:06;;;;;;;6.22;3.47;;;;;;;10.06;78.79;99489.25;3589187;40;20062;-61
2021/12/01 03:21:37;;;;;;;4.28;3.58;;;;;;;10.07;78.60;99519.63;3589792;40;20064;-61
2021/12/01 03:24:05;;;;;;;3.88;3.53;;;;;;;9.92;78.70;99473.38;3589828;40;20126;-61
2021/12/01 03:26:33;;;;;;;4.50;3.45;;;;;;;10.08;79.11;99502.53;3591003;40;20048;-61
2021/12/01 03:29:00;;;;;;;3.83;3.40;;;;;;;10.09;79.00;99488.16;3589756;40;20120;-61
2021/12/01 03:31:26;;;;;;;3.35;3.15;;;;;;;10.13;78.66;99481.53;3588857;40;20053;-61
2021/12/01 03:33:53;;;;;;;4.00;3.70;;;;;;;9.89;77.99;99450.31;3591512;40;20047;-61
2021/12/01 03:36:18;;;;;;;3.85;3.55;;;;;;;10.07;78.56;99474.84;3591177;40;20051;-61
2021/12/01 03:38:44;;;;;;;3.75;3.45;;;;;;;10.07;78.08;99473.97;3589802;40;20108;-62
2021/12/01 03:41:10;;;;;;;4.72;3.40;;;;;;;9.90;78.51;99438.63;3590258;40;20051;-62
2021/12/01 03:43:35;;;;;;;4.07;3.78;;;;;;;9.97;78.27;99464.00;3591496;40;20310;-63
2021/12/01 03:46:01;;;;;;;3.75;3.45;;;;;;;9.98;78.74;99454.09;3586096;40;20314;-63
2021/12/01 03:48:27;;;;;;;3.65;3.35;;;;;;;9.97;78.63;99458.63;3588989;40;20044;-63
2021/12/01 03:50:54;;;;;;;3.75;2.95;;;;;;;9.93;78.72;99427.66;3587462;40;20052;-63
2021/12/01 03:53:22;;;;;;;4.18;3.70;;;;;;;9.90;79.09;99425.22;3589688;40;20453;-62
2021/12/01 03:55:50;;;;;;;4.65;3.80;;;;;;;9.83;79.24;99413.28;3590674;40;20186;-63
2021/12/01 03:58:16;;;;;;;4.40;4.00;;;;;;;9.77;79.89;99422.69;3587077;39;20590;-63
2021/12/01 04:00:42;;;;;;;4.68;4.22;;;;;;;9.77;79.57;99420.00;3590842;40;20109;-62
2021/12/01 04:03:08;;;;;;;4.50;4.10;;;;;;;9.78;79.52;99377.91;3590925;40;20039;-62
2021/12/01 04:05:34;;;;;;;5.97;4.38;;;;;;;9.68;79.40;99380.47;3589684;40;20071;-62
2021/12/01 04:08:03;;;;;;;4.05;3.67;;;;;;;9.75;79.78;99362.91;3588392;40;20378;-62
2021/12/01 04:10:30;;;;;;;4.43;3.75;;;;;;;9.77;79.52;99365.47;3590061;40;20096;-62
2021/12/01 04:12:56;;;;;;;4.30;4.00;;;;;;;9.49;78.79;99335.53;3591007;40;20124;-62
2021/12/01 04:15:22;;;;;;;3.65;3.35;;;;;;;9.78;78.61;99377.91;3588346;40;20057;-62
2021/12/01 04:17:48;;;;;;;4.28;3.88;;;;;;;9.67;79.38;99346.59;3590357;40;20098;-62
2021/12/01 04:20:16;;;;;;;3.90;3.40;;;;;;;9.69;78.92;99358.03;3590678;40;20698;-62
2021/12/01 04:22:45;;;;;;;3.47;3.20;;;;;;;9.66;79.09;99346.69;3590902;40;20056;-62
2021/12/01 04:25:12;;;;;;;3.70;3.40;;;;;;;9.48;79.34;99317.72;3588952;40;20060;-62
2021/12/01 04:27:39;;;;;;;3.83;3.33;;;;;;;9.67;78.37;99329.63;3592613;40;20101;-62
2021/12/01 04:30:11;;;;;;;3.22;3.00;;;;;;;9.66;78.44;99331.44;3590304;40;20333;-62
2021/12/01 04:32:37;;;;;;;3.40;3.10;;;;;;;9.66;78.98;99320.72;3593593;40;20063;-61
2021/12/01 04:35:04;;;;;;;3.40;3.10;;;;;;;9.65;78.58;99302.06;3589502;40;20063;-62
2021/12/01 04:37:30;;;;;;;3.53;3.22;;;;;;;9.70;79.16;99307.91;3590243;40;20052;-63
2021/12/01 04:39:56;;;;;;;3.92;3.03;;;;;;;9.65;78.88;99284.16;3588856;40;20044;-63
2021/12/01 04:42:22;;;;;;;3.08;2.72;;;;;;;9.61;79.13;99277.34;3590546;40;20099;-63
2021/12/01 04:44:47;;;;;;;3.63;2.90;;;;;;;9.61;78.93;99273.78;3592007;40;20061;-63
2021/12/01 04:47:15;;;;;;;3.45;2.63;;;;;;;9.61;78.03;99279.16;3591253;40;20422;-63
2021/12/01 04:49:41;;;;;;;4.57;2.55;;;;;;;9.65;77.94;99281.47;3592174;40;20052;-63
2021/12/01 04:52:10;;;;;;;3.67;2.78;;;;;;;9.62;78.33;99248.69;3590666;40;20078;-63
2021/12/01 04:54:37;;;;;;;2.78;2.50;;;;;;;9.65;77.84;99251.09;3589958;40;20074;-63
2021/12/01 04:57:04;;;;;;;4.25;2.72;;;;;;;9.60;78.26;99247.94;3588230;40;20058;-63
2021/12/01 04:59:32;;;;;;;3.20;2.90;;;;;;;9.59;78.26;99259.66;3591240;40;20071;-63
2021/12/01 05:01:57;;;;;;;2.85;2.40;;;;;;;9.56;78.81;99233.09;3591980;40;20055;-63
2021/12/01 05:04:23;;;;;;;3.40;2.85;;;;;;;9.49;79.40;99254.22;3591026;40;20059;-63
2021/12/01 05:06:50;;;;;;;2.88;2.67;;;;;;;9.43;79.72;99225.22;3592140;40;20087;-63
2021/12/01 05:09:16;;;;;;;4.82;3.10;;;;;;;9.42;80.80;99234.22;3587813;39;20055;-63
2021/12/01 05:11:42;;;;;;;3.03;2.80;;;;;;;9.37;81.38;99215.84;3590216;40;20058;-63
2021/12/01 05:14:08;;;;;;;4.32;2.85;;;;;;;9.34;81.31;99218.75;3591214;40;20298;-63
2021/12/01 05:16:36;;;;;;;3.38;2.55;;;;;;;9.33;81.11;99243.03;3591193;40;20071;-63
2021/12/01 05:19:02;;;;;;;3.35;2.33;;;;;;;9.27;81.23;99206.84;3591941;40;20310;-63
2021/12/01 05:21:28;;;;;;;2.60;2.40;;;;;;;9.27;81.48;99194.28;3591657;40;20062;-63
2021/12/01 05:23:53;;;;;;;2.50;2.30;;;;;;;9.26;81.08;99208.69;3591576;40;20310;-62
2021/12/01 05:26:19;;;;;;;2.50;2.22;;;;;;;9.25;81.85;99200.75;3591839;40;20066;-63
2021/12/01 05:28:45;;;;;;;2.40;2.20;;;;;;;9.21;81.77;99210.03;3589676;40;20067;-63
2021/12/01 05:31:11;;;;;;;3.60;2.40;;;;;;;9.25;81.50;99201.59;3588938;39;20146;-63
2021/12/01 05:33:39;;;;;;;2.75;2.13;;;;;;;9.18;82.07;99191.53;3588921;40;20609;-63
2021/12/01 05:36:05;;;;;;;2.00;1.90;;;;;;;9.17;82.00;99187.16;3589753;40;20052;-64
2021/12/01 05:38:30;;;;;;;3.42;2.00;;;;;;;9.15;81.85;99181.06;3590904;40;20125;-64
2021/12/01 05:40:56;;;;;;;5.68;2.00;;;;;;;9.17;82.55;99173.75;3591886;40;20398;-63
2021/12/01 05:43:22;;;;;;;3.35;1.98;;;;;;;9.03;82.03;99150.75;3590771;40;20067;-63
2021/12/01 05:45:47;;;;;;;2.58;1.88;;;;;;;9.15;82.24;99184.56;3589843;40;20062;-63
2021/12/01 05:48:15;;;;;;;1.92;1.60;;;;;;;9.16;81.62;99172.03;3588468;40;20068;-64
2021/12/01 05:50:42;;;;;;;1.60;1.50;;;;;;;9.01;82.07;99126.75;3589261;40;20386;-63
2021/12/01 05:53:07;;;;;;;1.85;1.60;;;;;;;9.16;81.70;99146.06;3588567;40;20051;-63
2021/12/01 05:55:33;;;;;;;1.65;1.55;;;;;;;9.20;82.77;99157.41;3591932;40;20052;-63
2021/12/01 05:57:59;;;;;;;2.53;1.58;;;;;;;9.14;82.30;99144.50;3588516;40;20378;-63
2021/12/01 06:00:25;;;;;;;1.50;1.20;;;;;;;9.13;82.41;99132.06;3587474;40;20056;-64
2021/12/01 06:02:51;;;;;;;1.17;1.13;;;;;;;9.15;82.48;99127.44;3588935;40;20071;-63
2021/12/01 06:05:19;;;;;;;1.58;1.30;;;;;;;9.13;82.77;99124.03;3591399;40;20056;-63
2021/12/01 06:07:47;;;;;;;1.30;1.30;;;;;;;9.14;82.08;99123.91;3592031;40;20121;-63
2021/12/01 06:10:14;;;;;;;1.38;1.27;;;;;;;9.10;83.11;99109.03;3587727;40;20099;-63
2021/12/01 06:12:41;;;;;;;1.00;1.00;;;;;;;9.09;82.67;99093.94;3587321;40;20048;-63
2021/12/01 06:15:14;;;;;;;2.15;1.20;;;;;;;9.10;82.68;99094.78;3590373;40;20267;-63
2021/12/01 06:17:40;;;;;;;1.17;1.17;;;;;;;9.07;83.04;99086.03;3588139;40;20087;-63
2021/12/01 06:20:09;;;;;;;2.53;1.17;;;;;;;9.10;83.09;99098.31;3587633;40;20117;-63
2021/12/01 06:22:35;;;;;;;1.33;1.23;;;;;;;9.14;82.97;99072.97;3591407;40;20356;-63
2021/12/01 06:25:02;;;;;;;1.83;1.27;;;;;;;9.11;82.89;99072.38;3589190;39;20054;-63
2021/12/01 06:27:28;;;;;;;1.30;1.20;;;;;;;9.13;82.99;99062.38;3590979;40;20475;-63
2021/12/01 06:29:54;;;;;;;1.27;1.10;;;;;;;9.19;82.99;99069.91;3590394;39;20051;-63
2021/12/01 06:32:21;;;;;;;1.63;1.52;;;;;;;9.18;82.97;99068.19;3588588;40;20044;-63
2021/12/01 06:34:47;;;;;;;1.60;1.50;;;;;;;9.18;83.14;99063.69;3590649;40;20056;-64
2021/12/01 06:37:15;;;;;;;1.42;1.33;;;;;;;9.22;82.75;99061.59;3591363;39;20090;-63
2021/12/01 06:39:40;;;;;;;1.08;1.08;;;;;;;9.27;82.78;99072.78;3590186;40;20051;-63
2021/12/01 06:42:07;;;;;;;1.20;1.10;;;;;;;9.21;82.20;99055.38;3589177;40;20290;-64
2021/12/01 06:44:33;;;;;;;1.23;1.13;;;;;;;9.25;82.45;99038.06;3588181;40;20044;-64
2021/12/01 06:47:01;;;;;;;1.48;1.38;;;;;;;9.23;82.60;99050.75;3590910;40;20298;-63
2021/12/01 06:49:27;;;;;;;1.73;1.60;;;;;;;9.23;82.87;99039.19;3591049;40;20056;-64
2021/12/01 06:51:52;;;;;;;1.20;1.20;;;;;;;9.26;82.10;99049.63;3586492;40;20315;-63
2021/12/01 06:54:18;;;;;;;2.92;1.50;;;;;;;9.26;82.99;99046.94;3587127;40;20060;-63
2021/12/01 06:56:44;;;;;;;1.60;1.50;;;;;;;9.26;82.96;99038.91;3591637;40;20051;-63
2021/12/01 06:59:10;;;;;;;1.58;1.48;;;;;;;9.28;83.18;99032.44;3588392;40;20100;-63
2021/12/01 07:01:36;;;;;;;1.58;1.48;;;;;;;9.27;82.54;99021.84;3589315;40;20047;-63
2021/12/01 07:04:02;;;;;;;1.52;1.40;;;;;;;9.31;83.18;99025.97;3586620;40;20055;-63
2021/12/01 07:06:27;;;;;;;1.63;1.52;;;;;;;9.30;82.96;99027.78;3588941;40;20060;-64
2021/12/01 07:08:55;;;;;;;1.70;1.60;;;;;;;9.37;83.12;99025.44;3587375;40;20055;-63
2021/12/01 07:11:21;;;;;;;2.10;2.00;;;;;;;9.39;82.37;99022.63;3585946;40;20086;-63
2021/12/01 07:13:46;;;;;;;2.05;1.95;;;;;;;9.41;82.95;99009.94;3589172;40;20391;-63
2021/12/01 07:16:12;;;;;;;2.83;2.22;;;;;;;9.37;82.86;99019.22;3588023;40;20071;-63
2021/12/01 07:18:37;;;;;;;2.45;2.33;;;;;;;9.43;82.66;99003.47;3591842;40;20055;-63
2021/12/01 07:21:04;;;;;;;2.33;2.22;;;;;;;9.43;83.41;99021.38;3591690;40;20309;-63
2021/12/01 07:23:30;;;;;;;5.03;2.40;;;;;;;9.10;83.28;98963.44;3589692;40;20052;-63
2021/12/01 07:25:56;;;;;;;2.50;2.30;;;;;;;9.44;82.69;99007.84;3585831;40;20052;-64
2021/12/01 07:28:22;;;;;;;3.30;2.22;;;;;;;9.49;82.55;99015.50;3590530;40;20142;-63
2021/12/01 07:30:47;;;;;;;2.55;2.30;;;;;;;9.48;82.82;99014.66;3590187;40;20382;-63
2021/12/01 07:33:13;;;;;;;3.22;2.85;;;;;;;9.47;83.52;99018.28;3590023;40;20133;-63
2021/12/01 07:35:38;;;;;;;3.55;3.25;;;;;;;9.46;83.59;99007.72;3591574;40;20063;-63
2021/12/01 07:38:04;;;;;;;3.03;2.83;;;;;;;9.43;83.19;99003.47;3589843;40;20047;-63
2021/12/01 07:40:29;;;;;;;3.17;2.97;;;;;;;9.49;83.99;99012.81;3591711;40;20052;-64
2021/12/01 07:42:55;;;;;;;3.08;2.88;;;;;;;9.32;83.74;98983.91;3587330;40;20098;-64
2021/12/01 07:45:21;;;;;;;4.22;3.33;;;;;;;9.46;83.97;99010.41;3586668;40;20056;-65
2021/12/01 07:47:46;;;;;;;5.10;3.25;;;;;;;9.50;83.64;99014.50;3589999;40;20052;-63
2021/12/01 07:50:12;;;;;;;3.22;2.92;;;;;;;9.52;83.94;99013.41;3589521;40;20178;-63
2021/12/01 07:52:39;;;;;;;5.57;3.67;;;;;;;9.50;83.65;99003.78;3589981;40;20066;-63
2021/12/01 07:55:07;;;;;;;3.60;3.30;;;;;;;8.96;83.47;98901.16;3589928;40;20052;-63
2021/12/01 07:57:34;;;;;;;3.55;3.30;;;;;;;9.54;84.19;98989.94;3589913;40;20059;-63
2021/12/01 07:59:59;;;;;;;4.95;4.28;;;;;;;9.31;83.57;98934.78;3590288;39;20056;-63
2021/12/01 08:02:25;;;;;;;3.08;2.75;;;;;;;9.59;83.44;98978.84;3591735;40;20048;-63
2021/12/01 08:04:53;;;;;;;3.35;3.13;;;;;;;9.53;83.23;98965.97;3591921;40;20311;-63
2021/12/01 08:07:19;;;;;;;4.25;3.45;;;;;;;9.56;83.93;98970.22;3590007;40;20056;-63
2021/12/01 08:09:44;;;;;;;3.50;3.20;;;;;;;9.59;83.90;98978.00;3589870;40;20471;-63
2021/12/01 08:12:11;;;;;;;3.60;3.30;;;;;;;9.59;83.46;98964.56;3588731;40;20052;-63
2021/12/01 08:14:38;;;;;;;3.67;3.38;;;;;;;9.64;83.22;98957.84;3591807;40;20040;-63
2021/12/01 08:17:05;;;;;;;3.70;3.40;;;;;;;9.64;83.02;98962.31;3591301;40;20054;-64
2021/12/01 08:19:30;;;;;;;3.45;3.17;;;;;;;9.71;83.58;98952.78;3587151;40;20710;-64
2021/12/01 08:21:56;;;;;;;3.60;3.40;;;;;;;9.64;82.76;98948.91;3591372;40;20051;-64
2021/12/01 08:24:22;;;;;;;4.50;3.78;;;;;;;9.70;83.02;98957.25;3591002;40;20060;-65
2021/12/01 08:26:49;;;;;;;4.22;3.80;;;;;;;9.75;82.71;98955.03;3591997;40;20055;-64
2021/12/01 08:29:15;;;;;;;3.67;3.40;;;;;;;9.47;82.92;98913.69;3588223;40;20048;-64
2021/12/01 08:31:41;;;;;;;4.00;3.67;;;;;;;9.75;82.70;98955.03;3592199;40;20305;-64
2021/12/01 08:34:08;;;;;;;3.90;3.60;;;;;;;9.81;82.49;98952.81;3584570;40;20302;-64
2021/12/01 08:36:34;;;;;;;3.05;2.85;;;;;;;9.82;82.56;98955.34;3588758;40;20052;-64
2021/12/01 08:39:02;;;;;;;3.42;3.20;;;;;;;9.84;82.23;98939.97;3591371;39;20075;-65
2021/12/01 08:41:28;;;;;;;5.93;2.97;;;;;;;9.87;82.80;98941.53;3592762;40;20337;-65
2021/12/01 08:43:53;;;;;;;3.40;3.10;;;;;;;9.81;82.28;98924.13;3591410;40;20066;-66
2021/12/01 08:46:19;;;;;;;3.75;2.80;;;;;;;9.81;82.39;98925.97;3590209;40;20175;-63
2021/12/01 08:48:46;;;;;;;3.08;2.67;;;;;;;9.96;82.89;98940.72;3592362;40;20068;-62
2021/12/01 08:51:12;;;;;;;2.70;2.50;;;;;;;9.94;82.61;98932.78;3590827;40;20072;-62
2021/12/01 08:53:41;;;;;;;5.10;2.47;;;;;;;9.98;82.25;98934.19;3592712;40;20050;-63
2021/12/01 08:56:08;;;;;;;2.50;2.30;;;;;;;10.03;82.04;98949.06;3591784;40;20121;-63
2021/12/01 08:58:34;;;;;;;3.30;2.55;;;;;;;10.03;82.11;98931.13;3592252;40;20293;-63
2021/12/01 09:01:01;;;;;;;2.42;2.25;;;;;;;10.18;81.09;98944.97;3590146;40;20379;-62
2021/12/01 09:03:27;;;;;;;2.78;2.03;;;;;;;10.17;80.96;98924.47;3592094;40;20059;-62
2021/12/01 09:05:54;;;;;;;2.08;1.98;;;;;;;10.21;81.38;98939.31;3592410;40;20477;-62
2021/12/01 09:08:23;;;;;;;1.70;1.60;;;;;;;10.26;80.05;98942.47;3591518;40;20052;-63
2021/12/01 09:10:52;;;;;;;2.10;1.90;;;;;;;10.24;80.31;98939.03;3589225;40;20048;-63
2021/12/01 09:13:21;;;;;;;1.58;1.40;;;;;;;10.21;79.65;98942.00;3590527;40;20055;-63
2021/12/01 09:15:47;;;;;;;1.90;1.40;;;;;;;10.19;80.24;98946.69;3591730;40;20043;-62
2021/12/01 09:18:13;;;;;;;2.05;1.85;;;;;;;10.09;80.51;98929.72;3585331;40;20104;-62
2021/12/01 09:20:38;;;;;;;1.80;1.70;;;;;;;10.17;80.23;98932.53;3591733;40;20063;-62
2021/12/01 09:23:05;;;;;;;3.17;1.70;;;;;;;10.21;80.29;98950.94;3590711;40;20060;-62
2021/12/01 09:25:33;;;;;;;3.47;1.83;;;;;;;10.17;80.71;98946.81;3591371;40;20060;-63
2021/12/01 09:28:00;;;;;;;1.50;1.40;;;;;;;10.19;80.46;98952.06;3586986;40;20083;-63
2021/12/01 09:30:27;;;;;;;1.98;1.73;;;;;;;10.07;81.18;98948.63;3584727;40;20305;-64
2021/12/01 09:32:53;;;;;;;5.00;2.10;;;;;;;9.77;81.30;98879.78;3590469;40;20051;-63
2021/12/01 09:35:19;;;;;;;3.53;2.10;;;;;;;10.00;81.19;98953.72;3589855;40;20129;-66
2021/12/01 09:37:45;;;;;;;2.95;2.20;;;;;;;9.96;82.03;98973.75;3590865;39;20060;-63
2021/12/01 09:40:17;;;;;;;4.32;2.30;;;;;;;9.94;82.19;98973.03;3590163;40;20071;-64
2021/12/01 09:42:48;;;;;;;5.15;2.50;;;;;;;9.90;82.06;98974.31;3586749;40;20059;-63
2021/12/01 09:45:16;;;;;;;3.90;2.60;;;;;;;9.88;82.47;98975.41;3591243;40;20051;-63
2021/12/01 09:47:43;;;;;;;3.15;2.22;;;;;;;9.67;82.02;98941.47;3586744;40;20152;-62
2021/12/01 09:50:10;;;;;;;2.75;2.20;;;;;;;9.82;81.32;98970.59;3590019;40;20064;-61
2021/12/01 09:52:36;;;;;;;3.95;2.30;;;;;;;9.76;81.26;98961.25;3585407;40;20056;-62
2021/12/01 09:55:04;;;;;;;6.45;2.33;;;;;;;9.77;81.03;98969.19;3586084;40;20126;-63
2021/12/01 09:57:29;;;;;;;5.93;2.53;;;;;;;9.79;81.71;98973.56;3585867;40;20055;-62
2021/12/01 09:59:55;;;;;;;5.65;2.50;;;;;;;9.78;81.21;98970.03;3588351;40;20375;-63
2021/12/01 10:02:24;;;;;;;6.78;2.25;;;;;;;9.79;80.21;98973.56;3587824;39;20352;-63
2021/12/01 10:04:53;;;;;;;6.85;2.10;;;;;;;9.73;80.23;98969.56;3593990;40;20267;-63
2021/12/01 10:07:29;;;;;;;7.75;2.20;;;;;;;9.73;80.38;98966.88;3589460;40;20063;-62
2021/12/01 10:09:58;;;;;;;6.88;2.42;;;;;;;9.71;79.31;98969.72;3587010;40;20445;-63
2021/12/01 10:12:44;;;;;;;8.55;2.25;;;;;;;9.72;79.68;98965.19;3593270;40;20051;-63
2021/12/01 10:15:10;;;;;;;5.20;1.73;;;;;;;9.69;80.15;98965.47;3593968;40;20083;-63
2021/12/01 10:17:35;;;;;;;9.70;2.22;;;;;;;9.67;79.25;98968.28;3589216;40;20129;-62
2021/12/01 10:20:18;;;;;;;11.30;2.40;;;;;;;9.59;78.64;98954.69;3591227;40;20136;-63
2021/12/01 10:23:08;;;;;;;11.13;2.08;;;;;;;9.53;79.41;98950.72;3589740;40;20052;-63
2021/12/01 10:25:34;;;;;;;9.50;2.30;;;;;;;9.63;78.79;98963.31;3587888;40;20152;-64
2021/12/01 10:28:00;;;;;;;7.50;1.90;;;;;;;9.69;78.72;98963.63;3585773;40;20121;-63
2021/12/01 10:30:45;;;;;;;7.60;1.90;;;;;;;9.81;79.15;98971.59;3587303;40;20056;-64
2021/12/01 10:33:15;;;;;;;9.75;1.52;;;;;;;9.90;77.03;98978.84;3584362;40;20390;-63
2021/12/01 10:35:43;;;;;;;7.10;1.77;;;;;;;9.96;76.11;98954.97;3591128;40;20053;-64
2021/12/01 10:38:13;;;;;;;8.77;2.00;;;;;;;9.93;75.94;98955.25;3586158;40;20093;-62
2021/12/01 10:40:41;;;;;;;8.25;1.67;;;;;;;9.90;75.90;98963.56;3591437;40;20048;-64
2021/12/01 10:43:14;;;;;;;5.32;1.60;;;;;;;10.17;74.01;98945.97;3585618;40;20421;-63
2021/12/01 10:45:46;;;;;;;11.07;1.42;;;;;;;10.37;74.34;98958.47;3590632;40;20459;-64
2021/12/01 10:48:24;;;;;;;6.97;1.70;;;;;;;10.54;73.42;98956.94;3585619;40;20059;-65
2021/12/01 10:50:51;;;;;;;4.45;1.33;;;;;;;10.63;72.53;98968.69;3584125;40;20064;-64
2021/12/01 10:53:22;;;;;;;8.35;1.42;;;;;;;10.79;72.21;98952.84;3585691;40;20058;-64
2021/12/01 10:55:51;;;;;;;4.63;1.20;;;;;;;11.01;71.17;98945.47;3589430;40;20087;-64
2021/12/01 10:58:18;;;;;;;5.20;1.33;;;;;;;11.14;71.27;98944.16;3590625;40;20408;-64
2021/12/01 11:00:48;;;;;;;7.93;1.33;;;;;;;11.11;70.27;98952.50;3583920;40;20335;-64
2021/12/01 11:03:25;;;;;;;4.82;1.38;;;;;;;10.98;70.48;98945.75;3585116;40;20375;-63
2021/12/01 11:05:54;;;;;;;7.55;1.65;;;;;;;10.86;70.81;98948.56;3584190;40;20052;-64
2021/12/01 11:08:22;;;;;;;7.82;1.55;;;;;;;10.66;71.96;98939.69;3586799;40;20052;-63
2021/12/01 11:10:49;;;;;;;6.57;1.35;;;;;;;10.60;71.32;98961.75;3586190;40;20044;-64
2021/12/01 11:13:16;;;;;;;6.25;1.63;;;;;;;10.48;71.71;98967.41;3589320;39;20162;-63
2021/12/01 11:15:56;;;;;;;6.07;1.02;;;;;;;10.38;72.35;98972.75;3588192;40;20063;-63
2021/12/01 11:18:28;;;;;;;5.80;1.08;;;;;;;10.29;72.50;98985.16;3587539;40;20529;-64
2021/12/01 11:20:59;;;;;;;6.05;0.80;;;;;;;10.23;72.97;98975.78;3590213;40;20313;-64
2021/12/01 11:23:34;;;;;;;2.70;0.98;;;;;;;10.19;72.57;98979.75;3588531;40;20054;-64
2021/12/01 11:26:19;;;;;;;8.23;1.27;;;;;;;10.13;71.80;98974.09;3588116;40;20397;-64
2021/12/01 11:28:52;;;;;;;4.68;1.25;;;;;;;10.06;72.63;98981.00;3586746;40;20060;-64
2021/12/01 11:31:24;;;;;;;4.25;0.73;;;;;;;10.05;72.52;98976.59;3587495;40;20144;-63
2021/12/01 11:33:55;;;;;;;6.80;1.27;;;;;;;9.95;72.38;98981.94;3588457;40;20125;-64
2021/12/01 11:36:32;;;;;;;5.80;1.00;;;;;;;9.90;72.87;98971.63;3590672;40;20526;-63
2021/12/01 11:39:04;;;;;;;3.58;0.98;;;;;;;9.91;73.51;98983.19;3594601;40;20063;-64
2021/12/01 11:41:31;;;;;;;5.97;1.20;;;;;;;9.81;72.79;98964.38;3593939;40;20048;-64
2021/12/01 11:43:58;;;;;;;8.68;1.10;;;;;;;9.87;72.29;98968.38;3591767;40;20052;-63
2021/12/01 11:46:25;;;;;;;5.65;1.33;;;;;;;9.82;72.25;98955.34;3590829;40;20078;-63
2021/12/01 11:48:59;;;;;;;5.90;1.50;;;;;;;9.83;72.66;98957.06;3591698;40;20394;-63